Time;durP1;ratioP1;P1;durP2;ratioP2;P2;SDS_P1;SDS_P2;PMS_P1;PMS_P2;Temp;Humidity;BMP_temperature;BMP_pressure;BME280_temperature;BME280_humidity;BME280_pressure;Samples;Min_cycle;Max_cycle;Signal;HPM_P1;HPM_P2
2023/05/27 00:02:25;;;;;;;10.73;4.73;;;15.70;99.90;;;;;;5093781;28;20180;-32
2023/05/27 00:04:51;;;;;;;10.00;4.60;;;15.70;99.90;;;;;;5125777;27;20211;-31
2023/05/27 00:07:17;;;;;;;9.23;4.53;;;15.80;99.90;;;;;;5103814;27;20188;-33
2023/05/27 00:09:43;;;;;;;8.53;4.03;;;15.80;99.90;;;;;;5114002;27;20183;-33
2023/05/27 00:12:09;;;;;;;7.93;4.40;;;15.80;99.90;;;;;;5112580;27;20171;-32
2023/05/27 00:14:35;;;;;;;9.40;4.27;;;15.80;99.90;;;;;;5132118;27;20203;-33
2023/05/27 00:17:03;;;;;;;8.70;4.37;;;15.70;99.90;;;;;;5111476;27;20186;-33
2023/05/27 00:19:30;;;;;;;7.23;3.93;;;15.70;99.90;;;;;;5104595;27;20204;-31
2023/05/27 00:21:57;;;;;;;6.67;4.00;;;15.70;99.90;;;;;;5132879;27;20183;-32
2023/05/27 00:24:23;;;;;;;11.53;4.10;;;15.70;99.90;;;;;;5114394;27;20203;-32
2023/05/27 00:26:49;;;;;;;8.43;4.60;;;15.70;99.90;;;;;;5132380;27;20194;-32
2023/05/27 00:29:18;;;;;;;8.50;4.27;;;15.70;99.90;;;;;;5102563;27;20176;-32
2023/05/27 00:31:44;;;;;;;8.47;4.23;;;15.70;99.90;;;;;;5090013;27;20244;-32
2023/05/27 00:34:11;;;;;;;8.63;4.60;;;15.60;99.90;;;;;;5113771;27;20203;-32
2023/05/27 00:36:37;;;;;;;6.90;4.00;;;15.50;99.90;;;;;;5098367;28;20229;-32
2023/05/27 00:39:05;;;;;;;9.50;4.47;;;15.50;99.90;;;;;;5130225;27;20175;-32
2023/05/27 00:41:31;;;;;;;9.43;4.50;;;15.50;99.90;;;;;;5107435;28;20180;-32
2023/05/27 00:43:57;;;;;;;7.40;4.00;;;15.60;99.90;;;;;;5111256;27;20209;-32
2023/05/27 00:46:23;;;;;;;8.77;4.13;;;15.50;99.90;;;;;;5114336;28;20733;-32
2023/05/27 00:48:49;;;;;;;7.33;3.97;;;15.50;99.90;;;;;;5127879;27;20638;-31
2023/05/27 00:51:15;;;;;;;7.20;3.97;;;15.50;99.90;;;;;;5113809;27;20182;-32
2023/05/27 00:53:43;;;;;;;9.77;4.70;;;15.40;99.90;;;;;;5114203;28;20290;-32
2023/05/27 00:56:10;;;;;;;9.10;4.10;;;15.40;99.90;;;;;;5113558;27;20187;-31
2023/05/27 00:58:38;;;;;;;6.63;3.63;;;15.30;99.90;;;;;;5113423;28;20198;-32
2023/05/27 01:01:05;;;;;;;8.30;4.00;;;15.30;99.90;;;;;;5105248;27;20181;-32
2023/05/27 01:03:33;;;;;;;5.93;3.50;;;15.20;99.90;;;;;;5113033;27;20218;-32
2023/05/27 01:06:10;;;;;;;9.30;4.10;;;15.20;99.90;;;;;;5099643;27;20324;-32
2023/05/27 01:08:57;;;;;;;6.87;3.90;;;15.20;99.90;;;;;;5109381;28;20180;-32
2023/05/27 01:11:31;;;;;;;8.70;4.60;;;15.10;99.90;;;;;;5124176;27;20232;-32
2023/05/27 01:14:00;;;;;;;10.93;4.37;;;15.10;99.90;;;;;;5093409;27;20222;-32
2023/05/27 01:16:30;;;;;;;10.27;3.90;;;15.00;99.90;;;;;;5138505;27;20197;-32
2023/05/27 01:18:59;;;;;;;8.13;4.00;;;15.00;99.90;;;;;;5122987;27;20636;-32
2023/05/27 01:21:31;;;;;;;9.27;3.97;;;15.00;99.90;;;;;;5112015;27;20176;-32
2023/05/27 01:24:03;;;;;;;9.27;4.50;;;14.90;99.90;;;;;;5136296;27;20203;-32
2023/05/27 01:26:29;;;;;;;8.27;3.77;;;14.80;99.90;;;;;;5097438;28;20261;-31
2023/05/27 01:28:56;;;;;;;10.20;4.27;;;14.80;99.90;;;;;;5105988;28;20183;-32
2023/05/27 01:31:29;;;;;;;8.47;4.20;;;14.70;99.90;;;;;;5105881;27;20183;-31
2023/05/27 01:34:07;;;;;;;10.10;4.13;;;14.70;99.90;;;;;;5117362;27;20203;-32
2023/05/27 01:36:43;;;;;;;8.87;4.20;;;14.60;99.90;;;;;;5111240;27;20180;-32
2023/05/27 01:39:13;;;;;;;7.87;4.07;;;14.60;99.90;;;;;;5098471;27;20183;-32
2023/05/27 01:41:41;;;;;;;10.03;4.50;;;14.50;99.90;;;;;;5130248;27;20183;-32
2023/05/27 01:44:10;;;;;;;9.27;4.50;;;14.50;99.90;;;;;;5114630;27;20248;-32
2023/05/27 01:46:36;;;;;;;8.43;3.93;;;14.50;99.90;;;;;;5111141;27;20407;-33
2023/05/27 01:49:03;;;;;;;8.87;4.00;;;14.50;99.90;;;;;;5095297;27;20176;-32
2023/05/27 01:51:29;;;;;;;13.03;4.70;;;14.50;99.90;;;;;;5125229;27;20203;-32
2023/05/27 01:53:56;;;;;;;9.70;4.23;;;14.50;99.90;;;;;;5113153;27;20195;-32
2023/05/27 01:56:22;;;;;;;8.37;3.93;;;14.50;99.90;;;;;;5104290;28;20267;-32
2023/05/27 01:58:48;;;;;;;7.93;4.10;;;14.40;99.90;;;;;;5116552;27;20180;-33
2023/05/27 02:01:14;;;;;;;7.07;4.30;;;14.30;99.90;;;;;;5107243;27;20277;-32
2023/05/27 02:03:40;;;;;;;8.13;4.50;;;14.20;99.90;;;;;;5104829;27;20191;-33
2023/05/27 02:06:06;;;;;;;9.67;4.53;;;14.10;99.90;;;;;;5090424;27;20188;-32
2023/05/27 02:08:33;;;;;;;11.30;5.23;;;14.00;99.90;;;;;;5134080;27;20202;-32
2023/05/27 02:11:00;;;;;;;10.00;5.47;;;13.90;99.90;;;;;;5115657;27;20649;-31
2023/05/27 02:13:26;;;;;;;9.37;5.40;;;13.90;99.90;;;;;;5095692;28;20204;-32
2023/05/27 02:15:52;;;;;;;10.77;5.10;;;13.80;99.90;;;;;;5093763;27;20267;-32
2023/05/27 02:18:20;;;;;;;9.33;5.20;;;13.70;99.90;;;;;;5099453;27;20201;-32
2023/05/27 02:20:47;;;;;;;6.73;4.97;;;13.70;99.90;;;;;;5095641;28;20172;-32
2023/05/27 02:23:12;;;;;;;7.73;4.80;;;13.70;99.90;;;;;;5114896;27;20266;-32
2023/05/27 02:25:38;;;;;;;7.77;4.53;;;13.60;99.90;;;;;;5095594;28;20266;-32
2023/05/27 02:28:05;;;;;;;9.33;5.20;;;13.50;99.90;;;;;;5131856;27;20176;-32
2023/05/27 02:30:31;;;;;;;13.60;5.97;;;13.50;99.90;;;;;;5103197;28;20179;-32
2023/05/27 02:32:58;;;;;;;10.67;5.60;;;13.40;99.90;;;;;;5113362;27;20207;-32
2023/05/27 02:35:23;;;;;;;7.33;4.70;;;13.40;99.90;;;;;;5116158;27;20202;-32
2023/05/27 02:37:51;;;;;;;10.70;5.27;;;13.30;99.90;;;;;;5097820;27;20202;-31
2023/05/27 02:40:27;;;;;;;7.73;4.60;;;13.30;99.90;;;;;;5116586;27;20203;-31
2023/05/27 02:42:58;;;;;;;8.00;5.07;;;13.20;99.90;;;;;;5096696;28;20183;-32
2023/05/27 02:45:24;;;;;;;8.73;4.97;;;13.20;99.90;;;;;;5116978;27;20179;-32
2023/05/27 02:47:51;;;;;;;7.30;5.13;;;13.20;99.90;;;;;;5116703;27;20209;-31
2023/05/27 02:50:17;;;;;;;9.60;5.63;;;13.20;99.90;;;;;;5115346;27;20205;-32
2023/05/27 02:52:43;;;;;;;13.23;6.27;;;13.20;99.90;;;;;;5101494;28;20189;-32
2023/05/27 02:55:09;;;;;;;13.77;6.70;;;13.10;99.90;;;;;;5115126;27;20218;-32
2023/05/27 02:57:35;;;;;;;8.87;5.97;;;13.10;99.90;;;;;;5117604;27;20193;-32
2023/05/27 03:00:01;;;;;;;10.40;6.07;;;13.10;99.90;;;;;;5082494;27;20179;-32
2023/05/27 03:02:27;;;;;;;11.17;6.17;;;13.00;99.90;;;;;;5109131;27;20198;-32
2023/05/27 03:04:55;;;;;;;11.10;6.67;;;12.90;99.90;;;;;;5142162;27;20194;-32
2023/05/27 03:07:21;;;;;;;10.77;6.47;;;12.80;99.90;;;;;;5099291;27;20206;-31
2023/05/27 03:09:47;;;;;;;10.27;6.50;;;12.80;99.90;;;;;;5117215;27;20189;-32
2023/05/27 03:12:12;;;;;;;10.17;6.47;;;12.70;99.90;;;;;;5099281;27;20190;-31
2023/05/27 03:14:38;;;;;;;11.17;6.33;;;12.60;99.90;;;;;;5116516;27;20221;-32
2023/05/27 03:17:04;;;;;;;9.03;6.40;;;12.60;99.90;;;;;;5099522;27;20187;-32
2023/05/27 03:19:30;;;;;;;15.33;6.30;;;12.60;99.90;;;;;;5116845;27;20269;-31
2023/05/27 03:21:56;;;;;;;13.00;7.37;;;12.60;99.90;;;;;;5134503;27;20257;-31
2023/05/27 03:24:25;;;;;;;9.53;6.67;;;12.60;99.90;;;;;;5117049;27;20206;-31
2023/05/27 03:26:51;;;;;;;7.97;6.17;;;12.60;99.90;;;;;;5116265;27;20210;-32
2023/05/27 03:29:18;;;;;;;10.60;6.50;;;12.60;99.90;;;;;;5100069;27;20265;-32
2023/05/27 03:31:44;;;;;;;12.13;6.43;;;12.50;99.90;;;;;;5102364;27;20258;-31
2023/05/27 03:34:14;;;;;;;11.07;6.13;;;12.50;99.90;;;;;;5098563;27;20203;-32
2023/05/27 03:36:42;;;;;;;10.57;6.27;;;12.50;99.90;;;;;;5116387;27;20648;-31
2023/05/27 03:39:09;;;;;;;9.33;6.17;;;12.40;99.90;;;;;;5104334;27;20186;-31
2023/05/27 03:41:39;;;;;;;9.40;6.40;;;12.40;99.90;;;;;;5102048;27;20181;-31
2023/05/27 03:44:05;;;;;;;9.90;6.10;;;12.40;99.90;;;;;;5115309;27;20313;-32
2023/05/27 03:46:33;;;;;;;9.37;5.90;;;12.30;99.90;;;;;;5132941;27;20178;-31
2023/05/27 03:48:59;;;;;;;10.77;6.23;;;12.40;99.90;;;;;;5116109;27;20756;-31
2023/05/27 03:51:25;;;;;;;8.67;6.10;;;12.30;99.90;;;;;;5094844;28;20179;-31
2023/05/27 03:53:51;;;;;;;8.33;5.87;;;12.40;99.90;;;;;;5111043;27;20212;-32
2023/05/27 03:56:17;;;;;;;12.27;6.40;;;12.30;99.90;;;;;;5097683;27;20196;-31
2023/05/27 03:58:44;;;;;;;10.33;6.50;;;12.40;99.90;;;;;;5109396;28;20186;-31
2023/05/27 04:01:11;;;;;;;9.30;6.13;;;12.40;99.90;;;;;;5096523;27;20177;-31
2023/05/27 04:03:39;;;;;;;8.77;5.83;;;12.40;99.90;;;;;;5115566;27;20190;-31
2023/05/27 04:06:05;;;;;;;11.30;6.47;;;12.40;99.90;;;;;;5115185;27;20184;-32
2023/05/27 04:08:31;;;;;;;10.50;6.07;;;12.40;99.90;;;;;;5113433;27;20178;-31
2023/05/27 04:10:57;;;;;;;10.93;5.83;;;12.40;99.90;;;;;;5113577;27;20276;-32
2023/05/27 04:13:24;;;;;;;8.00;5.63;;;12.40;99.90;;;;;;5116127;27;20269;-31
2023/05/27 04:15:50;;;;;;;10.43;6.23;;;12.40;99.90;;;;;;5114826;27;20201;-32
2023/05/27 04:18:16;;;;;;;8.50;5.70;;;12.40;99.90;;;;;;5097552;27;20194;-31
2023/05/27 04:20:44;;;;;;;10.47;5.70;;;12.40;99.90;;;;;;5094815;28;20227;-31
2023/05/27 04:23:11;;;;;;;9.53;5.37;;;12.40;99.90;;;;;;5098200;27;20214;-32
2023/05/27 04:25:38;;;;;;;10.20;6.00;;;12.40;99.90;;;;;;5111095;28;20178;-31
2023/05/27 04:28:06;;;;;;;9.83;5.70;;;12.40;99.90;;;;;;5113652;27;20186;-32
2023/05/27 04:30:35;;;;;;;11.47;5.83;;;12.40;99.90;;;;;;5108621;27;20184;-31
2023/05/27 04:33:07;;;;;;;13.67;6.50;;;12.40;99.90;;;;;;5095827;27;20302;-31
2023/05/27 04:35:34;;;;;;;10.57;5.83;;;12.40;99.90;;;;;;5110445;27;20202;-31
2023/05/27 04:38:01;;;;;;;10.23;6.90;;;12.50;99.90;;;;;;5115145;27;20235;-32
2023/05/27 04:40:31;;;;;;;10.53;5.80;;;12.50;99.90;;;;;;5094451;28;20177;-31
2023/05/27 04:43:16;;;;;;;11.40;5.93;;;12.60;99.90;;;;;;5132077;27;20209;-32
2023/05/27 04:45:43;;;;;;;10.43;5.53;;;12.70;99.90;;;;;;5131637;27;20272;-32
2023/05/27 04:48:10;;;;;;;12.07;6.33;;;12.70;99.90;;;;;;5096099;27;20182;-31
2023/05/27 04:50:36;;;;;;;10.20;5.90;;;12.80;99.90;;;;;;5116326;27;20267;-31
2023/05/27 04:53:02;;;;;;;10.10;6.10;;;12.70;99.90;;;;;;5119155;27;20210;-31
2023/05/27 04:55:29;;;;;;;14.63;6.37;;;12.70;99.90;;;;;;5136276;27;20209;-31
2023/05/27 04:57:56;;;;;;;8.60;5.07;;;12.80;99.90;;;;;;5118079;27;20184;-31
2023/05/27 05:00:49;;;;;;;10.97;5.57;;;12.70;99.90;;;;;;5097323;28;20246;-32
2023/05/27 05:03:20;;;;;;;8.83;4.60;;;12.80;99.90;;;;;;5100055;27;20299;-31
2023/05/27 05:05:52;;;;;;;10.90;5.40;;;12.70;99.90;;;;;;5098265;28;20323;-31
2023/05/27 05:08:21;;;;;;;10.20;5.07;;;12.70;99.90;;;;;;5100951;27;20242;-31
2023/05/27 05:10:50;;;;;;;9.37;5.10;;;12.70;99.90;;;;;;5098063;27;20182;-31
2023/05/27 05:13:17;;;;;;;8.10;5.07;;;12.80;99.90;;;;;;5094004;27;20209;-31
2023/05/27 05:15:44;;;;;;;8.30;4.93;;;12.80;99.90;;;;;;5118158;27;20203;-32
2023/05/27 05:18:11;;;;;;;8.13;5.03;;;12.80;99.90;;;;;;5126101;27;20219;-32
2023/05/27 05:20:40;;;;;;;7.20;4.87;;;12.80;99.90;;;;;;5118662;27;20266;-32
2023/05/27 05:23:09;;;;;;;13.30;5.13;;;12.90;99.90;;;;;;5109414;27;20283;-32
2023/05/27 05:25:37;;;;;;;8.57;5.40;;;13.00;99.90;;;;;;5098381;28;20189;-32
2023/05/27 05:28:05;;;;;;;9.97;5.40;;;13.10;99.90;;;;;;5098512;27;20195;-32
2023/05/27 05:30:31;;;;;;;8.63;5.33;;;13.20;99.90;;;;;;5097869;28;20183;-32
2023/05/27 05:33:00;;;;;;;11.77;5.40;;;13.20;99.90;;;;;;5098184;27;20687;-32
2023/05/27 05:35:30;;;;;;;9.97;5.33;;;13.30;99.90;;;;;;5098937;28;20207;-32
2023/05/27 05:38:10;;;;;;;8.30;5.03;;;13.40;99.90;;;;;;5121741;27;20175;-32
2023/05/27 05:40:36;;;;;;;10.87;5.27;;;13.50;99.90;;;;;;5135791;27;20207;-32
2023/05/27 05:43:13;;;;;;;9.50;4.83;;;13.60;99.90;;;;;;5120699;27;20209;-31
2023/05/27 05:45:40;;;;;;;9.83;5.37;;;13.70;99.90;;;;;;5104074;28;20180;-31
2023/05/27 05:48:05;;;;;;;8.97;5.33;;;13.70;99.90;;;;;;5097700;27;20184;-31
2023/05/27 05:50:32;;;;;;;8.57;5.13;;;13.90;99.90;;;;;;5101727;28;20179;-32
2023/05/27 05:52:59;;;;;;;10.83;5.30;;;14.10;99.90;;;;;;5115298;27;20194;-32
2023/05/27 05:55:25;;;;;;;8.03;4.80;;;14.20;99.90;;;;;;5110181;27;20266;-32
2023/05/27 05:57:51;;;;;;;9.43;4.90;;;14.40;99.90;;;;;;5118781;27;20206;-32
2023/05/27 06:00:17;;;;;;;10.20;5.00;;;14.60;99.90;;;;;;5092882;27;20211;-32
2023/05/27 06:02:43;;;;;;;11.50;5.70;;;14.70;99.90;;;;;;5131125;27;20194;-31
2023/05/27 06:05:13;;;;;;;11.13;4.90;;;14.90;99.90;;;;;;5117604;27;20192;-32
2023/05/27 06:07:38;;;;;;;12.97;5.80;;;15.00;99.90;;;;;;5097597;28;20172;-31
2023/05/27 06:10:09;;;;;;;9.20;5.23;;;15.10;99.90;;;;;;5110923;27;20180;-33
2023/05/27 06:12:40;;;;;;;9.80;5.20;;;15.30;99.90;;;;;;5117733;27;20251;-32
2023/05/27 06:15:07;;;;;;;7.87;5.17;;;15.40;99.90;;;;;;5099499;27;20207;-32
2023/05/27 06:17:39;;;;;;;9.87;5.57;;;15.50;99.90;;;;;;5113175;27;20175;-31
2023/05/27 06:20:06;;;;;;;11.87;5.43;;;15.70;99.90;;;;;;5116695;27;20210;-32
2023/05/27 06:22:33;;;;;;;8.67;4.87;;;15.70;99.90;;;;;;5103227;27;20171;-32
2023/05/27 06:25:24;;;;;;;9.93;5.10;;;15.90;99.90;;;;;;5101463;27;20179;-32
2023/05/27 06:27:59;;;;;;;8.93;4.77;;;16.10;99.90;;;;;;5116868;27;20653;-32
2023/05/27 06:30:25;;;;;;;11.20;5.10;;;16.20;99.90;;;;;;5083622;28;20183;-31
2023/05/27 06:32:52;;;;;;;8.03;4.93;;;16.40;99.90;;;;;;5095464;28;20184;-32
2023/05/27 06:35:20;;;;;;;13.10;5.67;;;16.60;99.90;;;;;;5114091;27;20203;-32
2023/05/27 06:37:47;;;;;;;9.07;4.63;;;16.60;99.90;;;;;;5106348;27;20171;-32
2023/05/27 06:40:14;;;;;;;12.57;5.07;;;16.70;99.90;;;;;;5115644;27;20180;-32
2023/05/27 06:42:40;;;;;;;10.73;4.90;;;16.80;99.90;;;;;;5115914;27;20183;-32
2023/05/27 06:45:22;;;;;;;9.37;5.07;;;16.80;99.90;;;;;;5089648;27;20184;-31
2023/05/27 06:47:54;;;;;;;7.67;4.70;;;16.90;99.90;;;;;;5091455;28;20662;-32
2023/05/27 06:50:20;;;;;;;10.38;5.05;;;17.00;99.90;;;;;;5110270;27;20183;-31
2023/05/27 06:52:46;;;;;;;9.83;4.67;;;17.10;99.90;;;;;;5117404;27;20332;-32
2023/05/27 06:55:23;;;;;;;9.50;5.13;;;17.30;99.90;;;;;;5104841;27;20203;-32
2023/05/27 06:58:05;;;;;;;10.55;4.80;;;17.40;99.90;;;;;;5113453;27;20174;-32
2023/05/27 07:00:43;;;;;;;8.70;4.32;;;17.60;99.90;;;;;;5079754;28;20218;-32
2023/05/27 07:03:30;;;;;;;10.75;4.82;;;17.80;99.90;;;;;;5115644;27;20281;-32
2023/05/27 07:05:56;;;;;;;11.90;4.90;;;17.80;99.90;;;;;;5115420;27;20262;-32
2023/05/27 07:08:26;;;;;;;10.90;4.55;;;17.90;99.90;;;;;;5105827;27;20201;-32
2023/05/27 07:11:10;;;;;;;8.60;4.57;;;18.00;99.90;;;;;;5104085;27;20233;-32
2023/05/27 07:13:36;;;;;;;9.30;4.80;;;18.10;99.90;;;;;;5094896;28;20203;-32
2023/05/27 07:16:03;;;;;;;11.48;5.07;;;18.10;99.90;;;;;;5103614;27;20199;-32
2023/05/27 07:18:29;;;;;;;12.00;4.95;;;18.20;99.90;;;;;;5112293;27;20180;-32
2023/05/27 07:20:57;;;;;;;11.18;4.75;;;18.30;99.90;;;;;;5107511;27;20200;-33
2023/05/27 07:23:23;;;;;;;9.65;4.47;;;18.50;99.90;;;;;;5112257;27;20195;-32
2023/05/27 07:26:01;;;;;;;8.85;4.00;;;18.50;99.90;;;;;;5114279;27;20193;-33
2023/05/27 07:28:27;;;;;;;11.07;4.93;;;18.60;99.90;;;;;;5108327;27;20175;-33
2023/05/27 07:31:04;;;;;;;10.05;5.20;;;18.70;99.90;;;;;;5100173;27;20209;-31
2023/05/27 07:33:35;;;;;;;11.10;4.72;;;18.80;99.90;;;;;;5104758;27;20203;-32
2023/05/27 07:36:01;;;;;;;8.48;4.50;;;18.90;99.90;;;;;;5102322;27;20247;-33
2023/05/27 07:38:27;;;;;;;9.93;5.03;;;19.10;99.90;;;;;;5096169;27;20227;-33
2023/05/27 07:40:52;;;;;;;9.18;4.18;;;19.20;99.90;;;;;;5088980;27;20175;-32
2023/05/27 07:43:18;;;;;;;8.95;4.32;;;19.30;99.90;;;;;;5114341;27;20203;-33
2023/05/27 07:45:45;;;;;;;9.65;4.25;;;19.40;99.90;;;;;;5098724;27;20183;-33
2023/05/27 07:48:11;;;;;;;11.25;4.40;;;19.20;99.90;;;;;;5112563;27;20190;-33
2023/05/27 07:50:37;;;;;;;7.20;4.20;;;19.40;99.90;;;;;;5108195;27;20265;-32
2023/05/27 07:53:09;;;;;;;8.43;4.25;;;19.50;99.90;;;;;;5091359;27;20206;-33
2023/05/27 07:55:37;;;;;;;10.40;4.50;;;19.60;99.90;;;;;;5115518;27;20290;-32
2023/05/27 07:58:04;;;;;;;11.82;4.75;;;19.80;99.90;;;;;;5093928;27;20179;-32
2023/05/27 08:00:41;;;;;;;10.45;4.57;;;19.90;99.90;;;;;;5097741;28;20241;-32
2023/05/27 08:03:07;;;;;;;10.07;5.00;;;20.00;99.90;;;;;;5092236;27;20196;-32
2023/05/27 08:05:53;;;;;;;8.77;4.30;;;19.70;99.90;;;;;;5113337;27;20259;-32
2023/05/27 08:08:38;;;;;;;8.65;4.68;;;19.90;99.90;;;;;;5104995;27;20193;-33
2023/05/27 08:11:22;;;;;;;7.78;4.28;;;20.00;99.90;;;;;;5128431;27;20205;-32
2023/05/27 08:13:58;;;;;;;8.95;4.72;;;20.10;99.90;;;;;;5109966;27;20233;-32
2023/05/27 08:16:33;;;;;;;11.73;4.47;;;20.20;99.90;;;;;;5103002;27;20183;-33
2023/05/27 08:19:11;;;;;;;9.95;4.72;;;20.40;99.90;;;;;;5110892;27;20176;-32
2023/05/27 08:21:47;;;;;;;8.30;4.60;;;20.70;99.90;;;;;;5103935;27;20270;-33
2023/05/27 08:24:31;;;;;;;10.85;4.53;;;20.80;99.90;;;;;;5133128;27;20256;-32
2023/05/27 08:27:17;;;;;;;8.85;4.95;;;21.10;99.90;;;;;;5115955;27;20193;-32
2023/05/27 08:30:02;;;;;;;9.65;5.35;;;21.20;99.90;;;;;;5121433;27;20186;-32
2023/05/27 08:32:50;;;;;;;10.18;4.88;;;21.30;99.90;;;;;;5106688;27;20184;-32
2023/05/27 08:36:08;;;;;;;;;;;;;;;;;;;;;
2023/05/27 08:39:12;;;;;;;11.50;4.95;;;21.80;99.90;;;;;;5105877;27;20181;-32
2023/05/27 08:42:04;;;;;;;10.57;4.82;;;22.00;99.90;;;;;;5118619;27;20187;-32
2023/05/27 08:44:55;;;;;;;9.02;4.90;;;22.10;99.90;;;;;;5098808;28;20670;-32
2023/05/27 08:47:29;;;;;;;8.40;4.70;;;22.30;99.90;;;;;;5114458;27;20178;-32
2023/05/27 08:50:02;;;;;;;11.70;5.15;;;22.40;99.90;;;;;;5116310;28;20179;-32
2023/05/27 08:52:56;;;;;;;10.02;5.13;;;22.40;99.90;;;;;;5112537;28;20909;-32
2023/05/27 08:55:26;;;;;;;9.23;4.85;;;22.30;99.90;;;;;;5102616;28;20282;-32
2023/05/27 08:57:56;;;;;;;10.02;4.70;;;22.40;99.90;;;;;;5126236;28;20179;-33
2023/05/27 09:00:25;;;;;;;11.23;5.57;;;22.50;99.90;;;;;;5136082;27;20182;-33
2023/05/27 09:02:58;;;;;;;8.63;4.78;;;22.70;99.90;;;;;;5097879;28;20262;-33
2023/05/27 09:05:28;;;;;;;8.13;5.00;;;22.90;99.90;;;;;;5092872;28;20273;-33
2023/05/27 09:07:55;;;;;;;10.60;4.82;;;22.90;99.90;;;;;;5103548;28;20172;-32
2023/05/27 09:10:21;;;;;;;8.40;4.90;;;23.10;99.90;;;;;;5104053;28;20192;-34
2023/05/27 09:12:49;;;;;;;8.05;4.70;;;23.10;99.90;;;;;;5122915;28;20171;-32
2023/05/27 09:15:16;;;;;;;8.95;4.95;;;23.30;99.90;;;;;;5125453;27;20203;-33
2023/05/27 09:17:43;;;;;;;10.70;5.05;;;23.40;99.90;;;;;;5103169;28;20175;-33
2023/05/27 09:20:13;;;;;;;7.53;5.00;;;23.60;99.90;;;;;;5095616;28;20173;-32
2023/05/27 09:22:40;;;;;;;10.50;5.80;;;23.70;99.90;;;;;;5120238;27;20194;-33
2023/05/27 09:25:08;;;;;;;11.45;5.03;;;23.70;99.90;;;;;;5096176;27;20216;-33
2023/05/27 09:27:35;;;;;;;10.98;5.93;;;23.80;99.90;;;;;;5117755;27;20187;-33
2023/05/27 09:30:12;;;;;;;9.52;5.88;;;23.90;99.90;;;;;;5121407;27;20649;-33
2023/05/27 09:32:39;;;;;;;8.77;4.97;;;23.70;99.90;;;;;;5099760;28;20199;-33
2023/05/27 09:35:12;;;;;;;8.50;5.05;;;23.80;99.90;;;;;;5105508;27;20203;-33
2023/05/27 09:37:38;;;;;;;9.10;5.45;;;23.80;99.90;;;;;;5115334;27;20171;-33
2023/05/27 09:40:10;;;;;;;8.63;5.28;;;24.00;99.90;;;;;;5109638;27;20183;-33
2023/05/27 09:42:48;;;;;;;10.57;5.93;;;24.20;99.90;;;;;;5123071;27;20184;-33
2023/05/27 09:45:16;;;;;;;8.30;5.07;;;23.90;99.90;;;;;;5124359;27;20179;-33
2023/05/27 09:47:51;;;;;;;10.23;5.28;;;24.20;99.90;;;;;;5118403;27;20172;-33
2023/05/27 09:50:18;;;;;;;10.50;5.63;;;24.30;99.90;;;;;;5095306;27;20179;-33
2023/05/27 09:52:47;;;;;;;9.20;5.03;;;24.30;99.90;;;;;;5105817;27;20185;-33
2023/05/27 09:55:14;;;;;;;8.60;5.50;;;24.50;99.90;;;;;;5128389;27;20297;-33
2023/05/27 09:57:40;;;;;;;8.82;5.05;;;24.60;99.90;;;;;;5109512;28;20183;-33
2023/05/27 10:00:11;;;;;;;8.27;5.13;;;24.60;99.90;;;;;;5105710;27;20186;-34
2023/05/27 10:02:48;;;;;;;10.35;5.72;;;24.30;99.90;;;;;;5132028;27;20207;-33
2023/05/27 10:05:16;;;;;;;9.30;5.57;;;24.40;99.90;;;;;;5095794;27;20172;-34
2023/05/27 10:07:44;;;;;;;9.65;5.15;;;24.60;99.90;;;;;;5125533;27;20409;-33
2023/05/27 10:10:12;;;;;;;9.35;5.25;;;24.70;99.90;;;;;;5105341;27;20206;-34
2023/05/27 10:12:39;;;;;;;9.23;5.53;;;24.80;99.90;;;;;;5106072;27;20186;-34
2023/05/27 10:15:06;;;;;;;10.93;5.30;;;24.90;99.90;;;;;;5122315;27;20245;-34
2023/05/27 10:18:02;;;;;;;10.48;5.45;;;25.10;99.90;;;;;;5108369;28;20180;-34
2023/05/27 10:20:37;;;;;;;9.38;5.32;;;25.40;99.90;;;;;;5073761;27;20183;-35
2023/05/27 10:23:18;;;;;;;7.47;5.32;;;25.50;99.90;;;;;;5128555;27;20183;-34
2023/05/27 10:25:52;;;;;;;7.63;5.45;;;25.60;99.90;;;;;;5101698;27;20175;-34
2023/05/27 10:28:31;;;;;;;10.93;5.28;;;25.60;99.90;;;;;;5095190;27;20221;-34
2023/05/27 10:31:07;;;;;;;9.85;5.82;;;25.40;99.90;;;;;;5087227;27;20175;-34
2023/05/27 10:33:42;;;;;;;8.10;4.93;;;25.20;99.90;;;;;;5128109;27;20209;-34
2023/05/27 10:36:15;;;;;;;9.95;5.38;;;25.40;99.90;;;;;;5130825;27;20203;-35
2023/05/27 10:38:42;;;;;;;9.57;5.43;;;25.50;99.90;;;;;;5103143;27;20198;-34
2023/05/27 10:41:09;;;;;;;10.18;5.47;;;25.50;99.90;;;;;;5128458;27;20312;-34
2023/05/27 10:43:36;;;;;;;7.65;5.18;;;25.50;99.90;;;;;;5089969;27;20199;-35
2023/05/27 10:46:37;;;;;;;9.30;5.50;;;25.50;99.90;;;;;;5102986;27;20214;-34
2023/05/27 10:49:25;;;;;;;8.75;5.40;;;25.70;99.90;;;;;;5102810;27;20186;-35
2023/05/27 10:51:53;;;;;;;9.93;5.45;;;25.70;99.90;;;;;;5121348;27;20179;-34
2023/05/27 10:54:19;;;;;;;7.05;5.25;;;25.70;99.90;;;;;;5104230;27;20202;-34
2023/05/27 10:56:50;;;;;;;6.70;4.95;;;25.70;99.90;;;;;;5122662;27;20228;-34
2023/05/27 10:59:21;;;;;;;8.50;5.32;;;26.00;99.90;;;;;;5125315;27;20179;-34
2023/05/27 11:01:52;;;;;;;8.63;6.05;;;26.20;99.90;;;;;;5105676;27;20191;-34
2023/05/27 11:04:18;;;;;;;8.52;5.40;;;26.20;99.90;;;;;;5097444;27;20196;-35
2023/05/27 11:06:58;;;;;;;9.13;5.63;;;26.10;99.90;;;;;;5113991;27;20260;-34
2023/05/27 11:09:24;;;;;;;6.47;5.13;;;26.00;99.90;;;;;;5097574;27;20181;-33
2023/05/27 11:11:49;;;;;;;7.93;5.22;;;25.60;99.90;;;;;;5110841;27;20170;-35
2023/05/27 11:14:19;;;;;;;9.50;5.75;;;25.70;99.90;;;;;;5104162;27;20203;-34
2023/05/27 11:16:51;;;;;;;10.43;6.15;;;25.40;99.90;;;;;;5124513;27;20253;-33
2023/05/27 11:19:18;;;;;;;7.78;5.28;;;25.60;99.90;;;;;;5123678;27;20179;-34
2023/05/27 11:21:45;;;;;;;8.15;5.15;;;25.80;99.90;;;;;;5104532;27;20175;-35
2023/05/27 11:24:18;;;;;;;9.75;5.78;;;26.00;99.90;;;;;;5093713;27;20199;-34
2023/05/27 11:26:46;;;;;;;7.38;4.80;;;26.10;99.90;;;;;;5114942;27;20184;-34
2023/05/27 11:29:13;;;;;;;6.65;5.30;;;26.20;99.90;;;;;;5111274;27;20176;-35
2023/05/27 11:31:40;;;;;;;10.07;5.97;;;26.50;99.90;;;;;;5113883;27;20202;-35
2023/05/27 11:34:18;;;;;;;8.70;5.60;;;26.70;99.90;;;;;;5093833;27;20191;-34
2023/05/27 11:36:45;;;;;;;8.25;5.05;;;26.70;99.90;;;;;;5105915;27;20171;-34
2023/05/27 11:39:19;;;;;;;9.13;5.90;;;26.90;99.90;;;;;;5105350;27;20187;-35
2023/05/27 11:41:52;;;;;;;7.25;5.63;;;26.60;99.90;;;;;;5107829;27;20183;-35
2023/05/27 11:44:20;;;;;;;7.30;5.30;;;26.70;99.90;;;;;;5095222;27;20191;-34
2023/05/27 11:46:47;;;;;;;8.23;5.30;;;27.00;99.90;;;;;;5124626;27;20271;-35
2023/05/27 11:49:18;;;;;;;7.05;4.97;;;27.10;99.90;;;;;;5108934;27;20175;-33
2023/05/27 11:51:46;;;;;;;7.82;5.30;;;27.10;99.90;;;;;;5109849;28;20179;-35
2023/05/27 11:54:22;;;;;;;10.43;5.82;;;27.20;99.90;;;;;;5093558;27;20219;-34
2023/05/27 11:56:49;;;;;;;6.95;5.15;;;27.20;99.90;;;;;;5091037;27;20185;-35
2023/05/27 11:59:15;;;;;;;7.90;5.40;;;26.80;99.90;;;;;;5111980;27;20180;-34
2023/05/27 12:01:42;;;;;;;7.78;5.10;;;26.80;99.90;;;;;;5112900;27;20171;-34
2023/05/27 12:04:08;;;;;;;8.00;5.53;;;26.80;99.90;;;;;;5096688;27;20199;-34
2023/05/27 12:06:35;;;;;;;8.63;5.20;;;27.00;99.90;;;;;;5113727;27;20262;-34
2023/05/27 12:09:02;;;;;;;8.75;5.70;;;26.80;99.90;;;;;;5093589;28;20210;-34
2023/05/27 12:11:28;;;;;;;8.60;5.60;;;26.70;99.90;;;;;;5113548;27;20176;-34
2023/05/27 12:13:54;;;;;;;8.20;5.40;;;26.60;99.90;;;;;;5093141;28;20215;-34
2023/05/27 12:16:20;;;;;;;8.05;5.78;;;26.60;99.90;;;;;;5094938;27;20207;-34
2023/05/27 12:18:46;;;;;;;6.75;5.13;;;26.80;99.90;;;;;;5113959;27;20183;-34
2023/05/27 12:21:12;;;;;;;7.30;5.75;;;26.90;99.90;;;;;;5096375;27;20190;-34
2023/05/27 12:23:38;;;;;;;7.75;5.55;;;26.60;99.90;;;;;;5096239;27;20191;-34
2023/05/27 12:26:04;;;;;;;9.93;5.57;;;26.70;99.90;;;;;;5104929;27;20186;-35
2023/05/27 12:28:30;;;;;;;8.85;5.65;;;26.60;99.90;;;;;;5093400;28;20195;-35
2023/05/27 12:30:56;;;;;;;7.28;5.18;;;26.60;99.90;;;;;;5108827;27;20179;-34
2023/05/27 12:33:22;;;;;;;8.68;5.45;;;26.70;99.90;;;;;;5095060;27;20212;-34
2023/05/27 12:35:47;;;;;;;9.45;5.75;;;27.00;99.90;;;;;;5131781;27;20259;-34
2023/05/27 12:38:13;;;;;;;5.97;5.00;;;26.90;99.90;;;;;;5094098;27;20198;-35
2023/05/27 12:40:39;;;;;;;9.82;5.85;;;26.90;99.90;;;;;;5092924;28;20229;-34
2023/05/27 12:43:06;;;;;;;8.38;5.35;;;27.10;99.90;;;;;;5089592;27;20184;-35
2023/05/27 12:45:32;;;;;;;8.13;5.82;;;27.50;99.90;;;;;;5092732;28;20180;-35
2023/05/27 12:47:59;;;;;;;9.23;5.55;;;27.70;99.90;;;;;;5127071;27;20179;-34
2023/05/27 12:50:25;;;;;;;10.27;5.72;;;27.80;99.90;;;;;;5096000;28;20183;-34
2023/05/27 12:52:52;;;;;;;7.65;5.53;;;27.80;99.90;;;;;;5106631;28;20259;-34
2023/05/27 12:55:21;;;;;;;8.95;5.90;;;27.80;99.90;;;;;;5110956;27;20195;-34
2023/05/27 12:57:49;;;;;;;8.10;5.97;;;27.50;99.90;;;;;;5092766;28;20184;-34
2023/05/27 13:00:16;;;;;;;7.43;6.03;;;27.50;99.90;;;;;;5112967;27;20218;-34